Time;durP1;ratioP1;P1;durP2;ratioP2;P2;SDS_P1;SDS_P2;PMS_P1;PMS_P2;Temp;Humidity;BMP_temperature;BMP_pressure;BME280_temperature;BME280_humidity;BME280_pressure;Samples;Min_cycle;Max_cycle;Signal;HPM_P1;HPM_P2
2021/08/24 00:02:29;;;;;;;3.05;2.75;;;;;;;22.03;49.20;102285.38;5000684;28;20025;-81
2021/08/24 00:05:02;;;;;;;4.82;2.88;;;;;;;22.22;49.04;102322.41;5001600;28;20026;-81
2021/08/24 00:07:28;;;;;;;5.03;2.47;;;;;;;22.18;49.17;102321.06;5001406;28;20454;-81
2021/08/24 00:09:53;;;;;;;3.03;2.60;;;;;;;22.06;48.49;102303.28;5001246;28;20026;-81
2021/08/24 00:12:19;;;;;;;4.85;2.50;;;;;;;22.00;49.62;102296.63;5001615;28;20034;-81
2021/08/24 00:14:44;;;;;;;3.05;2.50;;;;;;;22.00;48.71;102293.88;5001141;28;20030;-81
2021/08/24 00:17:10;;;;;;;3.33;2.25;;;;;;;22.07;49.30;102304.13;5001705;28;20022;-81
2021/08/24 00:19:46;;;;;;;2.90;2.10;;;;;;;21.97;48.76;102293.38;5001190;28;20041;-81
2021/08/24 00:22:11;;;;;;;3.25;2.55;;;;;;;22.07;48.98;102321.38;4984119;28;20049;-81
2021/08/24 00:24:37;;;;;;;2.85;1.95;;;;;;;22.02;49.33;102316.44;5000803;28;20022;-81
2021/08/24 00:27:20;;;;;;;3.35;2.60;;;;;;;22.03;48.97;102314.53;5000048;28;20028;-81
2021/08/24 00:29:46;;;;;;;2.28;2.05;;;;;;;21.90;48.43;102295.06;4984552;28;20030;-81
2021/08/24 00:32:11;;;;;;;2.38;2.17;;;;;;;21.83;48.93;102289.38;5000096;28;20381;-82
2021/08/24 00:34:43;;;;;;;1.77;1.63;;;;;;;21.82;49.51;102292.28;5000832;28;20021;-81
2021/08/24 00:37:11;;;;;;;2.28;1.98;;;;;;;21.80;48.81;102286.16;5000247;28;20029;-82
2021/08/24 00:39:37;;;;;;;3.80;2.40;;;;;;;21.96;49.14;102316.22;4999796;28;20036;-81
2021/08/24 00:42:02;;;;;;;2.30;2.10;;;;;;;21.87;48.63;102307.16;5000432;28;20025;-81
2021/08/24 00:44:28;;;;;;;3.78;2.25;;;;;;;21.88;49.30;102313.50;5016859;28;20057;-81
2021/08/24 00:46:54;;;;;;;2.25;1.60;;;;;;;21.89;49.38;102317.91;5000906;28;20365;-81
2021/08/24 00:49:38;;;;;;;4.03;1.90;;;;;;;21.85;48.65;102305.59;4984658;28;20493;-81
2021/08/24 00:52:24;;;;;;;1.50;1.38;;;;;;;21.98;48.91;102346.94;5001093;28;20026;-81
2021/08/24 00:54:50;;;;;;;1.67;1.58;;;;;;;21.81;48.90;102312.38;5000089;28;20022;-81
2021/08/24 00:57:20;;;;;;;3.90;2.08;;;;;;;21.74;49.26;102301.31;4983252;28;20065;-81
2021/08/24 01:00:28;;;;;;;4.03;2.28;;;;;;;21.66;49.58;102297.69;5000603;28;20542;-81
2021/08/24 01:03:11;;;;;;;2.97;1.75;;;;;;;21.63;48.83;102298.03;4977377;28;20027;-81
2021/08/24 01:05:51;;;;;;;3.78;2.45;;;;;;;21.81;48.93;102326.91;4961052;28;20046;-81
2021/08/24 01:09:10;;;;;;;2.78;2.03;;;;;;;21.91;48.52;102341.31;4961674;28;20042;-81
2021/08/24 01:11:44;;;;;;;3.38;2.63;;;;;;;21.91;48.65;102343.16;4977411;28;20035;-81
2021/08/24 01:14:20;;;;;;;6.25;3.47;;;;;;;21.91;49.13;102343.16;4977435;28;20448;-81
2021/08/24 01:16:56;;;;;;;5.03;2.30;;;;;;;21.86;49.00;102318.22;4977813;28;20129;-81
2021/08/24 01:19:45;;;;;;;3.50;2.78;;;;;;;22.00;49.31;102333.97;4945304;28;20037;-81
2021/08/24 01:22:25;;;;;;;3.58;2.45;;;;;;;22.05;48.83;102343.34;4976931;28;20030;-81
2021/08/24 01:25:14;;;;;;;3.75;2.85;;;;;;;21.93;49.19;102311.97;4976547;28;20031;-81
2021/08/24 01:28:40;;;;;;;;;;;;;;;;;;;;;
2021/08/24 01:31:34;;;;;;;4.85;3.03;;;;;;;22.09;48.71;102343.88;4937937;29;20128;-80
2021/08/24 01:34:47;;;;;;;3.28;1.80;;;;;;;22.08;49.26;102342.19;4937159;29;20035;-80
2021/08/24 01:37:37;;;;;;;6.32;2.90;;;;;;;22.11;49.55;102347.28;4876026;29;20047;-80
2021/08/24 01:40:23;;;;;;;10.63;2.90;;;;;;;21.83;49.31;102299.47;4899361;29;20035;-80
2021/08/24 01:42:48;;;;;;;7.68;2.40;;;;;;;21.97;49.61;102320.69;4915801;29;20130;-81
2021/08/24 01:45:25;;;;;;;5.18;2.63;;;;;;;22.16;48.85;102349.53;4940946;29;20034;-80
2021/08/24 01:48:15;;;;;;;5.85;2.30;;;;;;;21.88;48.63;102297.13;4924483;29;20474;-80
2021/08/24 01:54:11;;;;;;;3.05;2.00;;;;;;;22.11;48.77;102330.91;4982584;28;20031;-81
2021/08/24 01:56:38;;;;;;;2.80;2.03;;;;;;;22.21;48.75;102348.03;4963074;28;20436;-81
2021/08/24 01:59:16;;;;;;;4.50;2.40;;;;;;;22.18;49.43;102342.88;4948385;28;20047;-80
2021/08/24 02:01:51;;;;;;;3.47;2.85;;;;;;;22.25;48.87;102343.09;4998477;28;20074;-80
2021/08/24 02:04:30;;;;;;;2.75;2.10;;;;;;;22.18;48.71;102333.84;4998128;28;20084;-80
2021/08/24 02:06:57;;;;;;;3.42;2.53;;;;;;;22.19;48.71;102339.16;4998687;28;20042;-81
2021/08/24 02:09:29;;;;;;;2.90;2.38;;;;;;;22.25;48.71;102345.81;4998313;28;20080;-81
2021/08/24 02:11:54;;;;;;;4.00;2.30;;;;;;;22.16;48.75;102334.03;4997863;28;20080;-81
2021/08/24 02:14:24;;;;;;;4.60;1.88;;;;;;;22.23;48.40;102350.56;4998819;28;20033;-80
2021/08/24 02:16:50;;;;;;;7.95;2.50;;;;;;;22.20;48.31;102351.75;4998250;28;20037;-80
2021/08/24 02:19:31;;;;;;;5.40;2.97;;;;;;;22.18;48.15;102353.81;4981827;28;20676;-81
2021/08/24 02:22:00;;;;;;;2.70;1.80;;;;;;;22.02;48.80;102329.22;4999160;28;20033;-81
2021/08/24 02:24:33;;;;;;;3.88;2.30;;;;;;;22.10;48.42;102353.78;4998153;28;20026;-81
2021/08/24 02:27:02;;;;;;;5.68;2.47;;;;;;;22.09;48.43;102354.81;4998111;28;20030;-81
2021/08/24 02:29:27;;;;;;;6.15;2.63;;;;;;;22.08;48.37;102364.03;4997425;28;20021;-81
2021/08/24 02:32:00;;;;;;;4.60;2.05;;;;;;;21.99;48.79;102354.09;4982462;28;20045;-81
2021/08/24 02:34:51;;;;;;;2.90;1.88;;;;;;;22.02;49.01;102360.09;4998300;28;20033;-80
2021/08/24 02:37:23;;;;;;;5.10;3.17;;;;;;;21.92;47.93;102366.69;5012562;28;20025;-81
2021/08/24 02:40:27;;;;;;;2.05;1.80;;;;;;;21.83;48.35;102356.75;4999179;28;20037;-81
2021/08/24 02:43:07;;;;;;;4.88;2.20;;;;;;;21.84;48.62;102372.94;5014616;28;20061;-80
2021/08/24 02:45:36;;;;;;;2.85;1.77;;;;;;;21.79;47.94;102369.00;5017631;28;20026;-80
2021/08/24 02:48:05;;;;;;;4.18;2.53;;;;;;;21.80;48.78;102381.63;5002850;28;20496;-81
2021/08/24 02:50:30;;;;;;;3.10;2.00;;;;;;;21.75;48.58;102373.94;5002825;28;20065;-81
2021/08/24 02:52:56;;;;;;;4.57;2.10;;;;;;;21.68;47.99;102372.91;5002890;28;20038;-81
2021/08/24 02:55:22;;;;;;;6.22;2.33;;;;;;;21.67;48.41;102368.44;5002945;28;20507;-81
2021/08/24 02:57:48;;;;;;;4.82;2.00;;;;;;;21.63;48.20;102377.13;5004213;28;20041;-80
2021/08/24 03:00:16;;;;;;;3.20;2.00;;;;;;;21.60;48.61;102378.31;5003370;28;20034;-80
2021/08/24 03:02:42;;;;;;;3.83;2.55;;;;;;;21.52;48.01;102382.88;4985928;28;20022;-80
2021/08/24 03:05:12;;;;;;;2.83;1.92;;;;;;;21.47;48.09;102384.19;5003157;28;20068;-80
2021/08/24 03:07:39;;;;;;;4.68;2.00;;;;;;;21.45;48.14;102394.41;5003536;28;20079;-80
2021/08/24 03:10:10;;;;;;;2.40;2.20;;;;;;;21.41;48.78;102390.28;5002851;28;20022;-80
2021/08/24 03:13:02;;;;;;;6.22;2.10;;;;;;;21.41;48.41;102386.75;5003527;28;20472;-80
2021/08/24 03:15:50;;;;;;;5.55;2.42;;;;;;;21.37;49.02;102391.66;5019773;28;20053;-80
2021/08/24 03:18:21;;;;;;;2.38;1.80;;;;;;;21.30;49.02;102382.38;5003337;28;20026;-80
2021/08/24 03:20:50;;;;;;;2.97;1.65;;;;;;;21.23;48.59;102375.88;5002653;28;20403;-80
2021/08/24 03:23:20;;;;;;;3.40;1.50;;;;;;;21.22;48.97;102374.16;5003041;28;20021;-81
2021/08/24 03:25:47;;;;;;;5.13;2.20;;;;;;;21.23;48.02;102383.19;5003336;28;20022;-80
2021/08/24 03:28:14;;;;;;;4.05;2.10;;;;;;;21.15;48.93;102381.28;5003032;28;20065;-80
2021/08/24 03:30:39;;;;;;;4.38;1.80;;;;;;;21.17;48.78;102383.84;5002807;28;20037;-81
2021/08/24 03:33:05;;;;;;;4.40;1.92;;;;;;;21.11;48.58;102379.88;5001765;28;20496;-81
2021/08/24 03:35:30;;;;;;;2.60;1.67;;;;;;;21.11;48.39;102381.75;5003065;28;20029;-80
2021/08/24 03:37:55;;;;;;;2.60;1.70;;;;;;;21.08;48.53;102385.66;4986934;28;20085;-81
2021/08/24 03:40:21;;;;;;;3.92;1.83;;;;;;;21.04;48.48;102384.25;4985969;28;20120;-81
2021/08/24 03:42:46;;;;;;;2.55;1.83;;;;;;;21.03;48.82;102382.53;5002701;28;20032;-81
2021/08/24 03:45:12;;;;;;;3.15;1.95;;;;;;;20.98;48.33;102390.31;4986330;28;20467;-81
2021/08/24 03:47:38;;;;;;;4.13;2.05;;;;;;;20.90;49.18;102377.50;5002779;28;20391;-81
2021/08/24 03:50:05;;;;;;;2.85;2.05;;;;;;;20.93;49.04;102398.13;5003213;28;20029;-81
2021/08/24 03:52:30;;;;;;;4.13;2.65;;;;;;;20.89;49.16;102391.25;5002403;28;20026;-81
2021/08/24 03:54:56;;;;;;;2.30;1.83;;;;;;;20.74;48.46;102376.50;4986144;28;20041;-80
2021/08/24 03:57:21;;;;;;;4.05;1.90;;;;;;;20.73;48.34;102385.69;5000584;28;20085;-80
2021/08/24 03:59:47;;;;;;;4.75;1.85;;;;;;;20.78;48.62;102394.25;5001273;28;20496;-80
2021/08/24 04:02:12;;;;;;;1.50;1.40;;;;;;;20.76;48.84;102397.13;5002218;28;20476;-80
2021/08/24 04:04:37;;;;;;;1.92;1.52;;;;;;;20.62;49.12;102372.31;5002386;28;20018;-80
2021/08/24 04:07:03;;;;;;;3.45;1.80;;;;;;;20.68;48.74;102397.06;4985940;28;20034;-80
2021/08/24 04:09:29;;;;;;;8.55;2.10;;;;;;;20.64;48.98;102395.66;5002133;28;20048;-80
2021/08/24 04:11:54;;;;;;;3.47;2.78;;;;;;;20.69;48.99;102406.94;4985425;28;20030;-80
2021/08/24 04:14:19;;;;;;;4.05;2.17;;;;;;;20.64;48.94;102402.97;5002210;28;20033;-80
2021/08/24 04:16:45;;;;;;;2.90;1.80;;;;;;;20.66;48.55;102406.41;5001858;28;20017;-80
2021/08/24 04:19:19;;;;;;;4.53;1.50;;;;;;;20.65;48.74;102415.56;5002411;28;20451;-80
2021/08/24 04:21:44;;;;;;;6.10;1.60;;;;;;;20.50;48.50;102395.34;4986007;28;20034;-80
2021/08/24 04:24:10;;;;;;;4.07;1.55;;;;;;;20.46;49.04;102394.81;4984797;28;20084;-80
2021/08/24 04:26:36;;;;;;;1.13;1.02;;;;;;;20.53;48.80;102417.66;5000705;28;20408;-80
2021/08/24 04:29:02;;;;;;;3.13;1.40;;;;;;;20.50;49.11;102417.13;5001465;28;20075;-80
2021/08/24 04:31:30;;;;;;;1.55;1.30;;;;;;;20.44;48.82;102407.69;5001441;28;20462;-80
2021/08/24 04:33:56;;;;;;;2.55;1.60;;;;;;;20.31;49.14;102388.19;4985468;28;20431;-80
2021/08/24 04:36:30;;;;;;;1.83;1.38;;;;;;;20.40;48.66;102416.34;4985217;28;20026;-80
2021/08/24 04:38:55;;;;;;;1.65;1.40;;;;;;;20.37;48.69;102422.09;4987095;28;20205;-80
2021/08/24 04:41:21;;;;;;;1.42;1.15;;;;;;;20.36;48.85;102431.25;5001868;28;20495;-79
2021/08/24 04:43:46;;;;;;;3.28;1.42;;;;;;;20.26;49.45;102420.47;4985636;28;20036;-80
2021/08/24 04:46:12;;;;;;;3.58;1.40;;;;;;;20.30;48.88;102430.88;4985269;28;20050;-79
2021/08/24 04:48:37;;;;;;;3.15;1.50;;;;;;;20.15;48.88;102413.34;4985311;28;20065;-80
2021/08/24 04:51:02;;;;;;;1.45;1.33;;;;;;;20.11;48.62;102411.91;5002907;28;20075;-79
2021/08/24 04:53:29;;;;;;;3.60;1.38;;;;;;;20.15;48.81;102429.66;5000967;28;20030;-80
2021/08/24 04:55:55;;;;;;;1.92;1.08;;;;;;;20.19;49.21;102431.06;5001486;28;20025;-79
2021/08/24 04:58:21;;;;;;;1.70;1.20;;;;;;;20.22;48.75;102436.19;4984453;28;20050;-79
2021/08/24 05:00:46;;;;;;;2.35;1.45;;;;;;;20.22;48.86;102443.50;5018583;28;20038;-80
2021/08/24 05:03:12;;;;;;;1.58;1.33;;;;;;;20.20;49.44;102438.22;4986333;28;20145;-80
2021/08/24 05:05:37;;;;;;;4.85;1.50;;;;;;;20.24;48.80;102439.63;5001275;28;20021;-80
2021/08/24 05:08:04;;;;;;;2.65;1.75;;;;;;;20.18;49.24;102423.88;4984809;28;20088;-80
2021/08/24 05:10:29;;;;;;;3.58;1.83;;;;;;;20.26;49.30;102443.09;5001284;28;20030;-80
2021/08/24 05:12:59;;;;;;;2.30;1.50;;;;;;;20.16;48.71;102420.47;5001188;28;20029;-81
2021/08/24 05:15:35;;;;;;;1.80;1.50;;;;;;;20.07;48.59;102394.16;5007256;28;20132;-80
2021/08/24 05:18:01;;;;;;;2.97;1.98;;;;;;;20.17;49.10;102403.16;5001685;28;20529;-80
2021/08/24 05:20:29;;;;;;;3.63;2.40;;;;;;;20.22;49.10;102403.53;4984736;28;20030;-79
2021/08/24 05:26:24;;;;;;;1.95;1.48;;;;;;;20.51;49.01;102429.72;5002394;28;20056;-80
2021/08/24 05:28:55;;;;;;;2.97;2.05;;;;;;;20.47;48.42;102418.28;5002091;28;20030;-81
2021/08/24 05:31:21;;;;;;;5.80;2.40;;;;;;;20.57;48.92;102419.09;5001281;28;20392;-81
2021/08/24 05:34:22;;;;;;;4.78;2.00;;;;;;;20.69;48.67;102416.97;5002198;28;20033;-81
2021/08/24 05:36:48;;;;;;;4.93;2.58;;;;;;;21.09;48.85;102463.69;5034540;28;20448;-81
2021/08/24 05:39:13;;;;;;;5.93;1.98;;;;;;;21.01;48.51;102413.66;5020211;28;20057;-81
2021/08/24 05:41:39;;;;;;;5.65;2.45;;;;;;;21.15;48.99;102419.44;5020999;28;20036;-81
2021/08/24 05:44:06;;;;;;;7.25;2.63;;;;;;;21.46;48.12;102450.69;5019893;28;20093;-81
2021/08/24 05:46:31;;;;;;;4.88;2.00;;;;;;;21.44;48.13;102425.41;5020797;28;20463;-81
2021/08/24 05:49:03;;;;;;;5.85;2.88;;;;;;;21.63;49.17;102429.81;5022310;28;20033;-81
2021/08/24 05:51:28;;;;;;;6.63;2.45;;;;;;;21.87;49.06;102448.19;5006435;28;20025;-81
2021/08/24 05:54:30;;;;;;;4.20;1.90;;;;;;;22.19;48.19;102459.28;5036613;28;20027;-81
2021/08/24 05:57:04;;;;;;;2.35;2.08;;;;;;;22.15;48.51;102430.56;5036980;28;20523;-81
2021/08/24 05:59:29;;;;;;;6.68;2.42;;;;;;;22.43;48.59;102440.22;5019468;28;20028;-82
2021/08/24 06:01:54;;;;;;;5.70;2.75;;;;;;;22.66;47.56;102453.28;5019699;28;20021;-81
2021/08/24 06:04:54;;;;;;;4.90;2.58;;;;;;;22.72;47.18;102420.69;5018558;28;20047;-81
2021/08/24 06:07:20;;;;;;;3.30;2.22;;;;;;;23.04;47.35;102449.88;5025865;28;20095;-81
2021/08/24 06:09:45;;;;;;;3.05;2.25;;;;;;;23.20;47.09;102450.72;5018221;28;20029;-81
2021/08/24 06:12:27;;;;;;;4.45;2.25;;;;;;;23.31;47.20;102440.47;5019951;28;20033;-82
2021/08/24 06:14:52;;;;;;;4.50;2.35;;;;;;;23.60;47.79;102459.94;5003460;28;20503;-81
2021/08/24 06:17:36;;;;;;;8.90;2.90;;;;;;;23.75;47.29;102460.94;5020598;28;20026;-81
2021/08/24 06:20:09;;;;;;;2.97;2.20;;;;;;;23.74;46.88;102438.19;5017883;28;20033;-82
2021/08/24 06:22:48;;;;;;;;;;;;;;;;;;;;;
2021/08/24 06:25:15;;;;;;;4.18;2.90;;;;;;;24.02;47.31;102440.47;5035428;28;20059;-83
2021/08/24 06:27:59;;;;;;;7.32;2.50;;;;;;;24.36;46.77;102465.66;5018642;28;20032;-82
2021/08/24 06:30:24;;;;;;;3.67;2.65;;;;;;;24.39;46.81;102446.13;5001821;28;20488;-81
2021/08/24 06:33:10;;;;;;;6.57;2.53;;;;;;;24.68;46.73;102481.91;5002216;28;20032;-82
2021/08/24 06:35:36;;;;;;;3.80;2.67;;;;;;;24.56;46.56;102433.19;5018459;28;20037;-82
2021/08/24 06:38:01;;;;;;;5.38;2.70;;;;;;;24.73;46.62;102438.38;5018166;28;20105;-82
2021/08/24 06:40:27;;;;;;;5.65;2.78;;;;;;;25.10;46.43;102475.16;5035044;28;20076;-81
2021/08/24 06:42:53;;;;;;;7.32;2.95;;;;;;;25.15;45.71;102454.34;5018444;28;20049;-82
2021/08/24 06:45:25;;;;;;;5.00;2.78;;;;;;;25.37;45.64;102469.06;5018747;28;20033;-82
2021/08/24 06:47:51;;;;;;;4.57;3.22;;;;;;;25.33;45.81;102438.38;5019145;28;20029;-82
2021/08/24 06:50:17;;;;;;;8.98;2.88;;;;;;;25.51;45.64;102445.47;5019240;28;20029;-82
2021/08/24 06:52:43;;;;;;;8.30;2.72;;;;;;;25.71;45.20;102458.41;5019872;28;20550;-83
2021/08/24 06:55:39;;;;;;;4.35;2.65;;;;;;;25.88;44.75;102459.94;5019796;28;20033;-84
2021/08/24 06:58:07;;;;;;;5.22;2.85;;;;;;;26.15;45.12;102474.09;5051091;22;20527;-63
2021/08/24 07:00:32;;;;;;;3.88;2.80;;;;;;;26.30;44.50;102470.25;5051859;28;20465;-64
2021/08/24 07:02:58;;;;;;;4.18;2.75;;;;;;;26.46;44.37;102474.69;5053111;28;20017;-61
2021/08/24 07:05:26;;;;;;;4.88;2.25;;;;;;;26.59;44.39;102481.19;5053007;28;20492;-61
2021/08/24 07:07:51;;;;;;;6.72;3.08;;;;;;;26.75;44.09;102479.22;5053624;28;20025;-60
2021/08/24 07:10:17;;;;;;;6.28;3.13;;;;;;;26.86;44.35;102476.84;5052877;28;20032;-61
2021/08/24 07:12:43;;;;;;;8.10;3.28;;;;;;;27.03;43.65;102478.28;5051973;28;20092;-61
2021/08/24 07:15:10;;;;;;;4.20;2.88;;;;;;;27.19;44.03;102489.03;5053106;28;20040;-61
2021/08/24 07:17:36;;;;;;;4.05;2.92;;;;;;;27.36;43.15;102483.25;5053154;28;20024;-61
2021/08/24 07:20:03;;;;;;;7.13;3.10;;;;;;;27.52;42.88;102483.00;5053202;28;20103;-62
2021/08/24 07:22:28;;;;;;;6.60;2.78;;;;;;;27.68;42.72;102482.69;5053197;28;20025;-61
2021/08/24 07:24:53;;;;;;;7.72;3.40;;;;;;;27.83;43.03;102477.91;5051939;28;20166;-61
2021/08/24 07:27:19;;;;;;;6.15;2.75;;;;;;;28.02;43.25;102479.94;5035297;28;20102;-61
2021/08/24 07:29:44;;;;;;;5.82;2.50;;;;;;;28.15;41.87;102484.69;5051494;28;20044;-62
2021/08/24 07:32:09;;;;;;;4.63;2.67;;;;;;;28.25;41.75;102480.47;5053457;28;20071;-61
2021/08/24 07:34:36;;;;;;;6.35;2.88;;;;;;;28.41;42.34;102492.22;5056421;28;20031;-61
2021/08/24 07:37:02;;;;;;;4.20;2.30;;;;;;;28.55;41.80;102482.94;5055791;28;20053;-60
2021/08/24 07:39:27;;;;;;;4.78;2.47;;;;;;;28.73;41.42;102491.50;5056904;28;20103;-61
2021/08/24 07:41:52;;;;;;;4.00;2.75;;;;;;;28.85;41.24;102489.84;5055152;28;20477;-60
2021/08/24 07:44:23;;;;;;;7.22;3.05;;;;;;;28.99;41.22;102490.72;5056492;28;20032;-61
2021/08/24 07:46:49;;;;;;;7.85;2.92;;;;;;;29.13;41.00;102487.75;5055335;28;20029;-61
2021/08/24 07:49:14;;;;;;;5.72;2.28;;;;;;;29.34;40.80;102487.59;5056160;28;20078;-61
2021/08/24 07:51:40;;;;;;;4.25;2.40;;;;;;;29.51;40.62;102492.69;5055168;28;20041;-61
2021/08/24 07:54:05;;;;;;;8.60;2.50;;;;;;;29.61;40.50;102482.06;5056744;28;20029;-61
2021/08/24 07:56:30;;;;;;;4.30;2.47;;;;;;;29.78;39.90;102488.81;5021697;28;20051;-61
2021/08/24 07:58:56;;;;;;;4.80;2.30;;;;;;;29.92;40.42;102493.28;5055575;28;20124;-61
2021/08/24 08:01:21;;;;;;;5.13;2.88;;;;;;;30.10;39.67;102482.38;5055967;28;20501;-60
2021/08/24 08:03:47;;;;;;;4.88;2.80;;;;;;;30.23;39.52;102487.88;5056057;28;20386;-62
2021/08/24 08:06:12;;;;;;;4.43;2.72;;;;;;;30.37;39.33;102488.72;5055761;28;20504;-62
2021/08/24 08:08:38;;;;;;;4.05;2.63;;;;;;;30.45;38.75;102489.31;5056010;28;20082;-61
2021/08/24 08:11:03;;;;;;;4.45;2.40;;;;;;;30.54;38.76;102490.72;5056002;28;20110;-61
2021/08/24 08:13:29;;;;;;;3.22;2.13;;;;;;;30.68;38.88;102491.53;5055897;28;20021;-61
2021/08/24 08:15:55;;;;;;;3.50;2.08;;;;;;;30.82;38.92;102492.31;5055646;28;20033;-61
2021/08/24 08:18:21;;;;;;;3.50;2.25;;;;;;;30.93;38.35;102494.38;5037758;28;20094;-61
2021/08/24 08:20:47;;;;;;;3.47;1.92;;;;;;;31.04;38.14;102494.53;5055567;28;20028;-61
2021/08/24 08:23:17;;;;;;;5.72;2.17;;;;;;;31.16;37.61;102489.09;5056086;28;20089;-60
2021/08/24 08:25:43;;;;;;;2.95;2.45;;;;;;;31.32;37.37;102494.09;5054585;28;20029;-60
2021/08/24 08:28:09;;;;;;;5.20;2.10;;;;;;;31.46;37.30;102494.81;5055703;28;20147;-62
2021/08/24 08:30:35;;;;;;;3.47;2.40;;;;;;;31.51;37.26;102487.56;5054212;28;20025;-61
2021/08/24 08:33:04;;;;;;;4.32;2.05;;;;;;;31.63;37.10;102491.25;5054358;28;20463;-61
2021/08/24 08:35:30;;;;;;;4.05;2.15;;;;;;;31.74;36.72;102492.44;5055322;28;20425;-60
2021/08/24 08:37:56;;;;;;;4.07;2.08;;;;;;;31.92;36.49;102494.38;5055358;28;20049;-61
2021/08/24 08:40:32;;;;;;;4.68;2.03;;;;;;;32.01;36.63;102485.56;5055230;28;20032;-61
2021/08/24 08:43:07;;;;;;;4.18;1.90;;;;;;;32.18;36.24;102486.66;5053888;28;20082;-61
2021/08/24 08:45:36;;;;;;;2.60;2.03;;;;;;;32.35;35.65;102488.78;5055064;28;20025;-60
2021/08/24 08:48:23;;;;;;;4.88;2.92;;;;;;;32.51;35.87;102483.44;5055032;28;20466;-61
2021/08/24 08:50:55;;;;;;;3.38;1.65;;;;;;;32.68;34.77;102480.88;5054080;28;20024;-61
2021/08/24 08:53:31;;;;;;;2.83;1.77;;;;;;;32.76;35.64;102481.41;5053721;28;20025;-61
2021/08/24 08:55:59;;;;;;;3.50;1.60;;;;;;;32.93;34.96;102472.38;5054955;28;20385;-60
2021/08/24 08:58:31;;;;;;;2.63;2.03;;;;;;;33.03;35.21;102475.44;5054846;28;20084;-61
2021/08/24 09:01:29;;;;;;;2.65;1.95;;;;;;;33.17;35.04;102482.50;5055032;28;20048;-62
2021/08/24 09:04:07;;;;;;;4.95;2.10;;;;;;;33.27;34.54;102477.22;5021444;28;20044;-61
2021/08/24 09:06:33;;;;;;;6.03;2.05;;;;;;;33.41;34.87;102478.69;5055019;28;20024;-61
2021/08/24 09:09:00;;;;;;;3.05;1.88;;;;;;;33.54;34.61;102475.66;5054653;28;20031;-61
2021/08/24 09:11:31;;;;;;;4.32;2.20;;;;;;;33.67;33.75;102472.66;5054889;28;20082;-61
2021/08/24 09:14:08;;;;;;;4.13;2.03;;;;;;;33.77;33.38;102472.91;5053586;28;20114;-61
2021/08/24 09:16:41;;;;;;;2.28;1.45;;;;;;;33.81;33.29;102474.09;5053377;28;20033;-62
2021/08/24 09:19:25;;;;;;;3.92;1.75;;;;;;;33.90;33.14;102472.63;5053341;28;20024;-61
2021/08/24 09:21:51;;;;;;;4.57;1.88;;;;;;;33.97;33.42;102465.03;5053330;28;20025;-61
2021/08/24 09:24:23;;;;;;;3.83;1.52;;;;;;;34.09;33.95;102469.75;5053263;28;20428;-61
2021/08/24 09:27:05;;;;;;;2.92;1.75;;;;;;;34.16;32.63;102470.44;5052984;28;20017;-61
2021/08/24 09:29:37;;;;;;;2.20;1.40;;;;;;;34.22;33.81;102469.47;5054536;28;20032;-61
2021/08/24 09:32:08;;;;;;;6.72;1.85;;;;;;;34.36;32.95;102470.88;5053523;28;20025;-61
2021/08/24 09:34:39;;;;;;;3.00;1.70;;;;;;;34.45;32.88;102461.84;5053031;28;20068;-60
2021/08/24 09:37:05;;;;;;;4.53;1.73;;;;;;;34.57;32.48;102450.72;5054228;28;20070;-61
2021/08/24 09:39:48;;;;;;;2.30;1.45;;;;;;;34.75;32.19;102458.88;5054308;28;20120;-61
2021/08/24 09:42:14;;;;;;;3.70;1.55;;;;;;;34.86;32.32;102454.31;5054227;28;20100;-61
2021/08/24 09:44:39;;;;;;;4.13;1.60;;;;;;;34.94;31.51;102451.97;5053068;28;20185;-61
2021/08/24 09:47:17;;;;;;;6.88;1.52;;;;;;;35.08;31.53;102463.66;5053985;28;20029;-61
2021/08/24 09:49:42;;;;;;;2.90;1.77;;;;;;;35.32;31.67;102450.38;5053977;28;20035;-61
2021/08/24 09:52:18;;;;;;;3.75;1.90;;;;;;;35.49;31.15;102443.69;5053803;28;20021;-61
2021/08/24 09:54:52;;;;;;;4.03;3.72;;;;;;;36.07;30.60;102457.13;5053698;28;20029;-61
2021/08/24 09:57:27;;;;;;;6.05;1.90;;;;;;;36.81;29.94;102446.25;5052776;28;20036;-61
2021/08/24 09:59:59;;;;;;;2.13;1.45;;;;;;;38.48;27.59;102451.03;5052499;28;20037;-61
2021/08/24 10:02:52;;;;;;;2.50;1.48;;;;;;;39.74;27.08;102453.06;5052464;28;20048;-61
2021/08/24 10:05:21;;;;;;;1.75;1.42;;;;;;;39.02;27.15;102445.81;5053710;28;20043;-61
2021/08/24 10:07:52;;;;;;;1.92;1.60;;;;;;;38.29;28.69;102436.66;5053892;28;20115;-61
2021/08/24 10:10:29;;;;;;;2.87;1.30;;;;;;;37.61;28.61;102439.66;5052377;28;20408;-63
2021/08/24 10:12:57;;;;;;;2.17;1.67;;;;;;;37.71;29.17;102440.59;5052507;28;20468;-62
2021/08/24 10:15:32;;;;;;;2.22;1.55;;;;;;;37.88;28.20;102434.84;5052624;28;20535;-61
2021/08/24 10:18:21;;;;;;;1.65;1.15;;;;;;;38.02;28.08;102430.41;5053793;28;20056;-61
2021/08/24 10:21:27;;;;;;;4.40;1.70;;;;;;;38.20;28.47;102432.72;5053488;28;20079;-62
2021/08/24 10:23:56;;;;;;;2.47;1.45;;;;;;;38.49;28.02;102426.66;5053612;28;20028;-62
2021/08/24 10:26:26;;;;;;;2.80;1.85;;;;;;;38.68;27.55;102427.81;5053708;28;20024;-61
2021/08/24 10:28:55;;;;;;;6.55;1.65;;;;;;;38.21;27.40;102433.56;5053694;28;20013;-61
2021/08/24 10:31:26;;;;;;;2.92;1.38;;;;;;;38.58;27.24;102425.00;5053705;28;20420;-61
2021/08/24 10:33:55;;;;;;;1.67;1.55;;;;;;;37.45;28.16;102427.56;5053570;28;20124;-62
2021/08/24 10:36:42;;;;;;;2.42;1.60;;;;;;;37.89;27.72;102425.28;5053633;28;20458;-61
2021/08/24 10:39:23;;;;;;;1.85;1.10;;;;;;;37.45;27.34;102429.50;5068744;28;20043;-61
2021/08/24 10:42:08;;;;;;;2.25;1.38;;;;;;;36.81;27.83;102429.50;5053606;28;20016;-61
2021/08/24 10:45:01;;;;;;;3.83;1.75;;;;;;;37.49;27.11;102425.06;5051872;28;20036;-61
2021/08/24 10:47:51;;;;;;;2.75;1.67;;;;;;;37.34;26.97;102420.19;5050625;28;20037;-62
2021/08/24 10:50:22;;;;;;;1.83;1.63;;;;;;;37.81;26.50;102417.41;5056954;28;20044;-61
2021/08/24 10:52:58;;;;;;;1.65;1.23;;;;;;;37.83;26.40;102418.00;5053344;28;20021;-62
2021/08/24 10:55:27;;;;;;;6.28;1.38;;;;;;;38.13;26.07;102411.69;5052260;28;20032;-62
2021/08/24 10:57:59;;;;;;;2.83;1.80;;;;;;;38.55;25.13;102403.13;5053016;28;20036;-62
2021/08/24 11:00:30;;;;;;;8.07;2.22;;;;;;;38.88;24.93;102406.28;5052635;28;20397;-62
2021/08/24 11:03:33;;;;;;;3.13;1.55;;;;;;;39.31;25.07;102409.66;5053348;28;20021;-62
2021/08/24 11:06:17;;;;;;;4.25;1.52;;;;;;;39.59;25.54;102414.59;5054794;28;20061;-63
2021/08/24 11:09:20;;;;;;;3.85;1.63;;;;;;;39.29;25.55;102406.25;5057221;28;20016;-62
2021/08/24 11:11:48;;;;;;;3.65;1.65;;;;;;;38.99;25.00;102409.91;5057145;28;20040;-61
2021/08/24 11:14:41;;;;;;;2.78;1.42;;;;;;;38.44;25.60;102422.72;5057029;28;20033;-61
2021/08/24 11:17:38;;;;;;;3.08;1.45;;;;;;;37.66;26.01;102409.75;5057527;28;20111;-61
2021/08/24 11:20:27;;;;;;;1.63;1.42;;;;;;;37.75;24.94;102418.47;5036151;28;20087;-61
2021/08/24 11:23:17;;;;;;;1.48;1.13;;;;;;;37.32;25.45;102414.00;5056508;28;20021;-61
2021/08/24 11:25:48;;;;;;;4.35;1.70;;;;;;;37.74;25.33;102419.63;5056932;28;20033;-62
2021/08/24 11:28:22;;;;;;;2.47;1.90;;;;;;;37.94;25.25;102405.75;5055707;28;20025;-61
2021/08/24 11:30:57;;;;;;;2.35;1.60;;;;;;;37.73;24.82;102404.78;5056780;28;20040;-61
2021/08/24 11:33:44;;;;;;;2.80;1.73;;;;;;;37.21;25.61;102407.50;5055794;28;20032;-61
2021/08/24 11:36:17;;;;;;;4.00;1.73;;;;;;;37.23;25.37;102413.66;5055520;28;20086;-61
2021/08/24 11:38:53;;;;;;;2.45;1.20;;;;;;;37.67;24.83;102400.25;5055538;28;20028;-61
2021/08/24 11:41:20;;;;;;;2.85;1.73;;;;;;;37.97;24.75;102413.56;5055687;28;20029;-61
2021/08/24 11:43:53;;;;;;;2.45;1.63;;;;;;;38.22;24.17;102412.84;5055148;28;20444;-61
2021/08/24 11:46:24;;;;;;;2.60;1.50;;;;;;;38.50;23.75;102408.75;5056557;28;20121;-62
2021/08/24 11:48:59;;;;;;;3.72;1.40;;;;;;;38.79;24.07;102401.50;5055323;28;20021;-61
2021/08/24 11:51:28;;;;;;;3.53;1.60;;;;;;;38.45;24.06;102402.00;5054972;28;20024;-62
2021/08/24 11:54:07;;;;;;;2.67;1.52;;;;;;;38.82;23.86;102407.41;5055090;28;20048;-61
2021/08/24 11:56:45;;;;;;;1.92;1.33;;;;;;;38.97;23.88;102410.22;5056021;28;20040;-62
2021/08/24 11:59:17;;;;;;;3.78;1.80;;;;;;;38.92;23.98;102406.53;5055889;28;20045;-61